Time;durP1;ratioP1;P1;durP2;ratioP2;P2;SDS_P1;SDS_P2;PMS_P1;PMS_P2;Temp;Humidity;BMP_temperature;BMP_pressure;BME280_temperature;BME280_humidity;BME280_pressure;Samples;Min_cycle;Max_cycle;Signal;HPM_P1;HPM_P2
2023/11/04 00:02:24;;;;;;;7.30;2.70;;;;;;;21.68;76.02;99323.08;109941;1287;21851;-63
2023/11/04 00:04:51;;;;;;;7.80;2.50;;;;;;;21.67;76.39;99311.39;109941;1278;21931;-66
2023/11/04 00:07:17;;;;;;;8.70;3.00;;;;;;;21.66;76.70;99301.42;109935;1287;21928;-66
2023/11/04 00:09:44;;;;;;;7.90;2.90;;;;;;;21.67;76.72;99286.68;109953;1286;21929;-65
2023/11/04 00:12:11;;;;;;;9.50;2.90;;;;;;;21.68;76.81;99276.09;109945;1287;21947;-63
2023/11/04 00:14:37;;;;;;;8.30;2.90;;;;;;;21.70;76.86;99274.91;109925;1286;21958;-62
2023/11/04 00:17:02;;;;;;;9.90;2.70;;;;;;;21.72;76.96;99272.82;109947;1275;21952;-62
2023/11/04 00:19:28;;;;;;;12.30;4.30;;;;;;;21.73;77.40;99271.32;109957;1286;21948;-62
2023/11/04 00:21:54;;;;;;;7.70;3.20;;;;;;;21.74;77.43;99272.46;109934;1286;21943;-62
2023/11/04 00:24:19;;;;;;;7.10;3.20;;;;;;;21.77;78.07;99276.02;109958;1280;21936;-62
2023/11/04 00:26:45;;;;;;;9.90;3.30;;;;;;;21.78;78.52;99278.24;109935;1286;21934;-62
2023/11/04 00:29:11;;;;;;;9.00;3.00;;;;;;;21.78;79.45;99278.89;109920;1287;22007;-63
2023/11/04 00:31:36;;;;;;;7.20;2.90;;;;;;;21.80;78.89;99279.88;109939;1285;21964;-62
2023/11/04 00:34:02;;;;;;;8.30;3.00;;;;;;;21.80;78.77;99285.39;109953;1287;21880;-65
2023/11/04 00:36:29;;;;;;;8.40;3.60;;;;;;;21.82;79.29;99280.98;109944;1287;21997;-65
2023/11/04 00:38:55;;;;;;;14.90;3.70;;;;;;;21.83;79.30;99276.59;109948;1286;21933;-63
2023/11/04 00:41:21;;;;;;;12.00;3.40;;;;;;;21.85;79.47;99271.08;109932;1286;21994;-63
2023/11/04 00:43:46;;;;;;;13.00;4.00;;;;;;;21.88;79.56;99270.48;109939;1287;21983;-64
2023/11/04 00:46:12;;;;;;;12.00;3.60;;;;;;;21.92;79.37;99267.92;109934;1281;21989;-65
2023/11/04 00:48:38;;;;;;;14.50;4.80;;;;;;;21.94;79.34;99260.34;109944;1280;21842;-66
2023/11/04 00:51:04;;;;;;;8.20;3.60;;;;;;;21.97;79.79;99254.09;109939;1287;21931;-64
2023/11/04 00:53:29;;;;;;;9.30;3.90;;;;;;;21.99;79.95;99254.10;109935;1287;21945;-63
2023/11/04 00:55:55;;;;;;;9.30;4.10;;;;;;;22.02;80.01;99245.66;109948;1287;21963;-63
2023/11/04 00:58:20;;;;;;;10.60;3.60;;;;;;;22.06;80.32;99231.63;109937;1287;21957;-63
2023/11/04 01:00:46;;;;;;;11.80;4.10;;;;;;;22.08;80.48;99234.34;109946;1286;21940;-64
2023/11/04 01:03:11;;;;;;;11.30;4.40;;;;;;;22.10;80.76;99238.39;109936;1287;21933;-64
2023/11/04 01:05:37;;;;;;;11.20;4.60;;;;;;;22.14;80.56;99237.23;109916;1287;21985;-65
2023/11/04 01:08:04;;;;;;;11.60;4.40;;;;;;;22.18;80.81;99235.70;109965;1283;21943;-62
2023/11/04 01:10:30;;;;;;;12.10;4.70;;;;;;;22.21;81.24;99228.45;109931;1287;21839;-63
2023/11/04 01:12:56;;;;;;;11.10;4.90;;;;;;;22.24;81.20;99231.30;109920;1280;21956;-63
2023/11/04 01:15:21;;;;;;;14.10;4.60;;;;;;;22.25;81.98;99241.20;109924;1287;21948;-63
2023/11/04 01:17:47;;;;;;;13.90;5.10;;;;;;;22.27;81.98;99242.65;109938;1287;21943;-65
2023/11/04 01:20:12;;;;;;;13.90;4.70;;;;;;;22.29;81.87;99230.34;109955;1277;21996;-63
2023/11/04 01:22:38;;;;;;;12.10;4.60;;;;;;;22.32;81.69;99226.70;109939;1287;21904;-64
2023/11/04 01:25:05;;;;;;;11.00;4.30;;;;;;;22.34;81.64;99216.38;109931;1279;21947;-63
2023/11/04 01:27:30;;;;;;;15.60;5.40;;;;;;;22.34;81.47;99210.29;109945;1286;21938;-62
2023/11/04 01:29:56;;;;;;;15.40;5.40;;;;;;;22.33;81.74;99210.02;109931;1287;21971;-63
2023/11/04 01:32:21;;;;;;;12.90;5.30;;;;;;;22.32;81.68;99216.20;109933;1287;21930;-68
2023/11/04 01:34:47;;;;;;;10.20;4.50;;;;;;;22.31;81.77;99208.63;109933;1283;21856;-66
2023/11/04 01:37:13;;;;;;;10.60;4.80;;;;;;;22.29;81.78;99202.15;109771;1281;21925;-65
2023/11/04 01:39:39;;;;;;;14.50;5.10;;;;;;;22.27;81.82;99201.73;109939;1280;21925;-65
2023/11/04 01:42:06;;;;;;;12.40;5.20;;;;;;;22.26;82.08;99199.30;109948;1287;21951;-64
2023/11/04 01:44:32;;;;;;;10.40;4.60;;;;;;;22.27;82.54;99196.22;109935;1280;22357;-64
2023/11/04 01:46:58;;;;;;;15.40;5.60;;;;;;;22.28;82.28;99193.95;109957;1279;21945;-64
2023/11/04 01:49:23;;;;;;;14.20;5.10;;;;;;;22.29;82.44;99190.48;109824;1287;22074;-64
2023/11/04 01:51:50;;;;;;;15.00;4.70;;;;;;;22.31;82.64;99187.50;109844;1287;21935;-63
2023/11/04 01:54:16;;;;;;;14.10;4.70;;;;;;;22.32;82.83;99187.77;109955;1287;21862;-65
2023/11/04 01:56:42;;;;;;;11.60;4.30;;;;;;;22.34;83.00;99184.57;109839;1287;21937;-66
2023/11/04 01:59:10;;;;;;;14.10;5.00;;;;;;;22.36;83.26;99185.33;109834;1287;22014;-64
2023/11/04 02:01:36;;;;;;;16.40;4.80;;;;;;;22.38;83.31;99181.58;109954;1287;21910;-65
2023/11/04 02:04:02;;;;;;;14.10;4.70;;;;;;;22.40;83.50;99184.25;109938;1287;21987;-66
2023/11/04 02:06:28;;;;;;;13.00;5.50;;;;;;;22.43;83.43;99187.95;109933;1287;21953;-65
2023/11/04 02:08:55;;;;;;;12.30;4.50;;;;;;;22.47;83.76;99179.98;109940;1287;22083;-64
2023/11/04 02:11:21;;;;;;;15.20;4.90;;;;;;;22.50;83.78;99175.08;109936;1287;21972;-65
2023/11/04 02:13:46;;;;;;;17.40;5.40;;;;;;;22.53;83.68;99173.63;109848;1287;22048;-65
2023/11/04 02:16:12;;;;;;;11.80;4.90;;;;;;;22.55;83.74;99175.59;109923;1286;21880;-63
2023/11/04 02:18:37;;;;;;;11.80;4.80;;;;;;;22.57;83.97;99185.59;109936;1287;21849;-66
2023/11/04 02:21:03;;;;;;;15.90;4.90;;;;;;;22.60;84.43;99196.31;109944;1287;21850;-65
2023/11/04 02:23:31;;;;;;;14.80;5.80;;;;;;;22.62;84.42;99199.50;109934;1287;21931;-64
2023/11/04 02:25:57;;;;;;;12.20;5.00;;;;;;;22.67;84.17;99204.32;109943;1280;22003;-64
2023/11/04 02:28:22;;;;;;;19.40;5.20;;;;;;;22.71;84.19;99208.24;109949;1287;21941;-66
2023/11/04 02:30:48;;;;;;;13.10;4.80;;;;;;;22.75;84.41;99204.36;109958;1287;21996;-63
2023/11/04 02:33:14;;;;;;;18.00;5.10;;;;;;;22.78;84.32;99197.00;109957;1287;21941;-64
2023/11/04 02:35:40;;;;;;;12.50;4.40;;;;;;;22.80;84.21;99188.56;109935;1279;21904;-64
2023/11/04 02:38:06;;;;;;;13.50;4.30;;;;;;;22.82;84.33;99184.09;109922;1287;21921;-65
2023/11/04 02:40:31;;;;;;;14.20;4.70;;;;;;;22.85;84.23;99181.37;109933;1287;21923;-64
2023/11/04 02:42:57;;;;;;;13.50;4.70;;;;;;;22.87;84.30;99179.73;109937;1287;22009;-63
2023/11/04 02:45:23;;;;;;;11.90;5.10;;;;;;;22.88;84.24;99179.50;109938;1287;21930;-63
2023/11/04 02:47:49;;;;;;;18.50;5.60;;;;;;;22.88;84.36;99181.98;109950;1273;21931;-65
2023/11/04 02:50:15;;;;;;;16.20;5.50;;;;;;;22.88;84.33;99178.77;109940;1287;21956;-64
2023/11/04 02:52:40;;;;;;;16.40;5.00;;;;;;;22.90;84.57;99182.41;109951;1276;21899;-66
2023/11/04 02:55:06;;;;;;;14.20;4.50;;;;;;;22.92;84.83;99195.16;109949;1287;21955;-64
2023/11/04 02:57:32;;;;;;;17.10;5.20;;;;;;;22.93;84.86;99194.17;109938;1287;21932;-65
2023/11/04 02:59:58;;;;;;;19.60;5.60;;;;;;;22.93;84.84;99185.73;109934;1287;22017;-66
2023/11/04 03:02:24;;;;;;;13.90;5.40;;;;;;;22.94;84.59;99184.61;109919;1287;21845;-65
2023/11/04 03:04:49;;;;;;;17.20;5.30;;;;;;;22.94;84.69;99186.77;109940;1287;22049;-66
2023/11/04 03:07:15;;;;;;;14.10;4.30;;;;;;;22.93;84.76;99182.18;109950;1279;21942;-64
2023/11/04 03:09:40;;;;;;;15.30;5.70;;;;;;;22.92;84.84;99175.30;109926;1283;21986;-65
2023/11/04 03:12:07;;;;;;;18.40;5.30;;;;;;;22.90;84.97;99174.91;109943;1287;22022;-65
2023/11/04 03:14:32;;;;;;;18.00;5.10;;;;;;;22.87;85.32;99179.56;109934;1287;21934;-65
2023/11/04 03:16:58;;;;;;;15.80;4.70;;;;;;;22.86;85.46;99189.74;109940;1287;21934;-64
2023/11/04 03:19:24;;;;;;;16.60;4.70;;;;;;;22.85;85.31;99201.41;109923;1287;21926;-65
2023/11/04 03:21:50;;;;;;;15.20;5.80;;;;;;;22.85;85.45;99196.22;109929;1280;21962;-64
2023/11/04 03:24:17;;;;;;;13.20;4.90;;;;;;;22.85;85.75;99189.26;109941;1286;21942;-64
2023/11/04 03:26:44;;;;;;;12.70;4.80;;;;;;;22.85;85.32;99191.77;109930;1279;21943;-65
2023/11/04 03:29:10;;;;;;;14.10;4.30;;;;;;;22.85;85.31;99195.69;109941;1287;21926;-64
2023/11/04 03:31:37;;;;;;;12.80;4.20;;;;;;;22.85;85.45;99197.48;109943;1287;21960;-65
2023/11/04 03:34:03;;;;;;;11.70;4.70;;;;;;;22.84;85.62;99198.40;109925;1287;21965;-64
2023/11/04 03:36:29;;;;;;;21.30;5.90;;;;;;;22.86;85.66;99198.07;109900;1276;22002;-65
2023/11/04 03:38:55;;;;;;;14.70;5.30;;;;;;;22.88;85.68;99196.84;109930;1287;21924;-64
2023/11/04 03:41:20;;;;;;;13.00;4.60;;;;;;;22.90;85.71;99194.23;109935;1287;21861;-66
2023/11/04 03:43:45;;;;;;;14.30;4.80;;;;;;;22.91;85.80;99200.55;109947;1286;22000;-64
2023/11/04 03:46:11;;;;;;;15.70;4.80;;;;;;;22.93;85.81;99203.40;109938;1286;21983;-64
2023/11/04 03:48:40;;;;;;;18.40;5.10;;;;;;;22.95;85.81;99200.21;109942;1286;21856;-64
2023/11/04 03:51:06;;;;;;;16.00;5.50;;;;;;;22.98;85.80;99195.65;109929;1280;21969;-65
2023/11/04 03:53:31;;;;;;;25.10;6.30;;;;;;;23.00;85.69;99200.85;109946;1287;21936;-64
2023/11/04 03:55:57;;;;;;;14.80;4.90;;;;;;;23.01;85.84;99201.64;109928;1283;21867;-64
2023/11/04 03:58:22;;;;;;;13.70;5.40;;;;;;;23.03;85.76;99203.14;109940;1283;21932;-64
2023/11/04 04:00:48;;;;;;;13.60;4.90;;;;;;;23.05;86.00;99197.11;109930;1287;21995;-64
2023/11/04 04:03:14;;;;;;;13.60;5.80;;;;;;;23.06;86.04;99192.39;109939;1278;22398;-63
2023/11/04 04:05:39;;;;;;;17.90;5.50;;;;;;;23.06;85.74;99179.66;109941;1287;21946;-65
2023/11/04 04:08:05;;;;;;;15.70;5.10;;;;;;;23.07;85.98;99176.33;109904;1286;22002;-64
2023/11/04 04:10:31;;;;;;;14.30;5.20;;;;;;;23.08;86.34;99173.80;109949;1276;21970;-64
2023/11/04 04:12:57;;;;;;;17.10;5.30;;;;;;;23.07;85.96;99175.29;109947;1286;21949;-64
2023/11/04 04:15:22;;;;;;;11.10;5.00;;;;;;;23.07;85.78;99176.92;109925;1276;22037;-65
2023/11/04 04:17:49;;;;;;;17.20;5.70;;;;;;;23.06;85.89;99174.66;109919;1286;21932;-65
2023/11/04 04:20:17;;;;;;;20.50;6.60;;;;;;;23.05;85.64;99170.24;109947;1287;21924;-65
2023/11/04 04:22:42;;;;;;;23.80;5.80;;;;;;;23.04;85.62;99173.17;109932;1286;21977;-64
2023/11/04 04:25:09;;;;;;;14.10;5.00;;;;;;;23.03;85.57;99174.69;109919;1286;21932;-66
2023/11/04 04:27:38;;;;;;;14.30;5.00;;;;;;;23.01;85.80;99173.57;109912;1286;22447;-64
2023/11/04 04:30:07;;;;;;;14.80;4.90;;;;;;;22.98;85.53;99163.61;109938;1285;21953;-65
2023/11/04 04:32:32;;;;;;;19.30;5.60;;;;;;;22.97;85.28;99163.54;109946;1280;21956;-65
2023/11/04 04:34:58;;;;;;;12.20;4.90;;;;;;;22.95;85.11;99171.39;109929;1273;21931;-65
2023/11/04 04:37:24;;;;;;;16.00;5.50;;;;;;;22.94;85.17;99178.52;109947;1286;21952;-66
2023/11/04 04:39:51;;;;;;;17.30;5.80;;;;;;;22.93;85.17;99177.46;109933;1287;21933;-64
2023/11/04 04:42:17;;;;;;;16.50;4.90;;;;;;;22.93;85.14;99174.45;109952;1286;21957;-66
2023/11/04 04:44:43;;;;;;;18.80;5.80;;;;;;;22.93;85.13;99175.20;109952;1287;21843;-64
2023/11/04 04:47:08;;;;;;;19.10;5.90;;;;;;;22.93;84.95;99177.34;109938;1276;21928;-64
2023/11/04 04:49:34;;;;;;;17.20;4.90;;;;;;;22.92;84.75;99182.06;109942;1286;22009;-63
2023/11/04 04:51:59;;;;;;;17.70;5.60;;;;;;;22.91;85.08;99176.56;109933;1277;21945;-64
2023/11/04 04:54:25;;;;;;;15.30;5.00;;;;;;;22.91;84.99;99175.73;109951;1275;21924;-64
2023/11/04 04:56:50;;;;;;;14.40;5.70;;;;;;;22.91;85.18;99171.83;109935;1286;21925;-65
2023/11/04 04:59:19;;;;;;;18.00;5.10;;;;;;;22.90;85.13;99172.39;109932;1286;21916;-64
2023/11/04 05:01:44;;;;;;;18.90;5.00;;;;;;;22.91;84.99;99172.16;109937;1280;21879;-64
2023/11/04 05:04:10;;;;;;;21.60;6.40;;;;;;;22.91;84.96;99168.39;109937;1283;21865;-64
2023/11/04 05:06:35;;;;;;;13.60;5.70;;;;;;;22.92;84.98;99165.40;109944;1283;21951;-65
2023/11/04 05:09:01;;;;;;;20.70;5.80;;;;;;;22.93;85.05;99169.42;109953;1279;21952;-64
2023/11/04 05:11:27;;;;;;;16.90;6.40;;;;;;;22.94;85.49;99172.96;109926;1287;21949;-65
2023/11/04 05:13:53;;;;;;;15.50;5.30;;;;;;;22.96;85.63;99172.96;109952;1281;21900;-64
2023/11/04 05:16:19;;;;;;;16.50;5.30;;;;;;;23.00;85.52;99172.23;109935;1287;21967;-65
2023/11/04 05:18:45;;;;;;;21.20;5.90;;;;;;;23.04;85.56;99167.08;109945;1286;21964;-65
2023/11/04 05:21:11;;;;;;;15.20;6.30;;;;;;;23.08;85.74;99169.30;109932;1286;22171;-65
2023/11/04 05:23:37;;;;;;;15.80;5.40;;;;;;;23.10;85.82;99178.98;109924;1280;21993;-63
2023/11/04 05:26:03;;;;;;;20.70;5.30;;;;;;;23.12;85.81;99185.94;109943;1287;21869;-64
2023/11/04 05:28:28;;;;;;;14.90;6.00;;;;;;;23.14;85.95;99183.65;109962;1279;21942;-64
2023/11/04 05:30:55;;;;;;;14.80;5.10;;;;;;;23.18;85.94;99181.31;109946;1273;21918;-65
2023/11/04 05:33:25;;;;;;;18.70;7.20;;;;;;;23.22;86.08;99177.41;109945;1286;22001;-65
2023/11/04 05:35:51;;;;;;;17.90;6.20;;;;;;;23.24;86.17;99165.98;109938;1276;21933;-64
2023/11/04 05:38:17;;;;;;;17.60;5.90;;;;;;;23.26;86.35;99159.93;109934;1279;22346;-64
2023/11/04 05:40:43;;;;;;;23.20;7.50;;;;;;;23.28;86.53;99154.36;109944;1286;21909;-65
2023/11/04 05:43:08;;;;;;;15.60;6.40;;;;;;;23.33;86.76;99158.65;109931;1280;21993;-65
2023/11/04 05:45:34;;;;;;;19.00;6.90;;;;;;;23.36;86.87;99163.58;109935;1287;21929;-65
2023/11/04 05:48:00;;;;;;;21.30;8.40;;;;;;;23.38;87.02;99159.08;109954;1287;21931;-65
2023/11/04 05:50:25;;;;;;;19.10;6.70;;;;;;;23.41;87.22;99161.86;109944;1287;21861;-66
2023/11/04 05:52:51;;;;;;;17.40;7.70;;;;;;;23.44;87.14;99164.63;109892;1286;21936;-66
2023/11/04 05:55:17;;;;;;;19.10;7.30;;;;;;;23.48;87.32;99171.17;109938;1287;21939;-64
2023/11/04 05:57:42;;;;;;;21.10;7.00;;;;;;;23.48;87.46;99170.46;109939;1279;21935;-65
2023/11/04 06:00:11;;;;;;;17.20;6.70;;;;;;;23.50;87.69;99166.89;109931;1287;21956;-64
2023/11/04 06:02:38;;;;;;;19.50;7.30;;;;;;;23.52;87.82;99164.30;109936;1286;21920;-64
2023/11/04 06:05:06;;;;;;;13.00;6.10;;;;;;;23.58;87.81;99165.47;109945;1283;21954;-63
2023/11/04 06:07:32;;;;;;;20.40;7.80;;;;;;;23.60;88.00;99162.77;109893;1286;22463;-62
2023/11/04 06:09:57;;;;;;;17.60;6.20;;;;;;;23.61;87.45;99155.95;109927;1287;21982;-63
2023/11/04 06:12:23;;;;;;;16.60;5.60;;;;;;;23.61;87.45;99151.08;109952;1287;21924;-64
2023/11/04 06:14:49;;;;;;;26.30;7.30;;;;;;;23.62;87.60;99149.52;109928;1286;22008;-63
2023/11/04 06:17:14;;;;;;;24.10;7.20;;;;;;;23.63;87.52;99144.97;109955;1276;21943;-65
2023/11/04 06:19:40;;;;;;;17.20;6.50;;;;;;;23.63;87.22;99131.61;109902;1286;21946;-63
2023/11/04 06:22:05;;;;;;;16.40;6.30;;;;;;;23.62;87.26;99133.64;109938;1279;21911;-63
2023/11/04 06:24:31;;;;;;;17.30;6.60;;;;;;;23.61;87.29;99139.73;109945;1278;21929;-63
2023/11/04 06:26:57;;;;;;;16.30;7.00;;;;;;;23.59;87.04;99150.81;109935;1280;21939;-63
2023/11/04 06:29:22;;;;;;;17.70;6.60;;;;;;;23.59;86.97;99158.41;109951;1287;21973;-65
2023/11/04 06:31:48;;;;;;;18.10;6.10;;;;;;;23.58;86.83;99162.63;109940;1279;21991;-67
2023/11/04 06:34:14;;;;;;;16.40;6.20;;;;;;;23.59;86.88;99173.80;109962;1287;21876;-65
2023/11/04 06:36:40;;;;;;;16.40;6.30;;;;;;;23.61;86.84;99178.44;109950;1276;21927;-65
2023/11/04 06:39:06;;;;;;;14.90;6.60;;;;;;;23.64;87.03;99174.83;109957;1287;21926;-64
2023/11/04 06:41:32;;;;;;;14.20;5.90;;;;;;;23.66;86.95;99170.15;109956;1286;21934;-64
2023/11/04 06:43:58;;;;;;;14.60;6.20;;;;;;;23.67;86.92;99172.70;109957;1286;21851;-65
2023/11/04 06:46:24;;;;;;;15.80;7.40;;;;;;;23.68;86.95;99176.75;109859;1279;21917;-63
2023/11/04 06:48:51;;;;;;;16.20;5.90;;;;;;;23.70;87.21;99169.96;109949;1286;21944;-65
2023/11/04 06:51:21;;;;;;;16.50;6.20;;;;;;;23.71;87.12;99166.81;109968;1273;21923;-65
2023/11/04 06:53:47;;;;;;;17.40;6.10;;;;;;;23.73;87.27;99158.23;109941;1280;21925;-63
2023/11/04 06:56:13;;;;;;;17.90;6.40;;;;;;;23.75;87.54;99146.82;109935;1283;22344;-66
2023/11/04 06:58:39;;;;;;;13.70;5.40;;;;;;;23.78;87.79;99137.45;109942;1287;21997;-66
2023/11/04 07:01:05;;;;;;;15.80;5.60;;;;;;;23.73;88.22;99125.70;109953;1283;21937;-66
2023/11/04 07:03:31;;;;;;;23.10;5.70;;;;;;;23.82;88.22;99133.86;109938;1286;21996;-65
2023/11/04 07:05:57;;;;;;;18.40;5.70;;;;;;;23.80;88.59;99152.50;109955;1273;21918;-65
2023/11/04 07:08:23;;;;;;;17.60;5.10;;;;;;;23.79;88.82;99156.90;109968;1286;21945;-66
2023/11/04 07:10:49;;;;;;;16.70;4.80;;;;;;;23.83;89.10;99156.70;109928;1286;22003;-64
2023/11/04 07:13:14;;;;;;;14.90;5.50;;;;;;;23.88;88.99;99153.54;109939;1287;21958;-62
2023/11/04 07:15:41;;;;;;;19.10;5.00;;;;;;;23.94;88.72;99143.05;109947;1283;21918;-65
2023/11/04 07:18:07;;;;;;;15.90;4.90;;;;;;;24.02;88.43;99142.55;109949;1287;21928;-66
2023/11/04 07:20:37;;;;;;;22.90;6.20;;;;;;;24.04;88.52;99143.21;109960;1280;21948;-62
2023/11/04 07:23:03;;;;;;;20.20;6.40;;;;;;;24.09;88.57;99148.71;109954;1287;21924;-63
2023/11/04 07:25:30;;;;;;;24.10;6.60;;;;;;;24.11;88.43;99154.09;109935;1286;21941;-62
2023/11/04 07:27:58;;;;;;;22.60;6.40;;;;;;;24.11;88.64;99151.74;109968;1287;21954;-63
2023/11/04 07:30:24;;;;;;;15.30;5.90;;;;;;;24.17;88.11;99156.61;109939;1287;21937;-62
2023/11/04 07:32:50;;;;;;;16.90;5.30;;;;;;;24.14;88.34;99149.74;109948;1287;21878;-63
2023/11/04 07:35:16;;;;;;;16.30;5.40;;;;;;;24.19;88.56;99148.56;109952;1287;21960;-63
2023/11/04 07:37:42;;;;;;;21.10;6.70;;;;;;;24.27;88.59;99140.52;109952;1286;21950;-62
2023/11/04 07:40:08;;;;;;;20.90;6.20;;;;;;;24.35;88.40;99144.45;109954;1285;21918;-65
2023/11/04 07:42:37;;;;;;;19.70;5.60;;;;;;;24.46;88.21;99142.02;109944;1286;21964;-65
2023/11/04 07:45:03;;;;;;;17.50;5.40;;;;;;;24.56;88.21;99142.04;109945;1286;21875;-61
2023/11/04 07:47:29;;;;;;;15.10;4.90;;;;;;;24.70;88.70;99147.14;109924;1287;21963;-62
2023/11/04 07:49:54;;;;;;;14.50;4.40;;;;;;;24.85;88.97;99151.67;109942;1287;21957;-65
2023/11/04 07:52:21;;;;;;;15.20;5.10;;;;;;;25.01;88.83;99148.23;109961;1286;21931;-66
2023/11/04 07:54:46;;;;;;;14.10;4.70;;;;;;;25.15;88.32;99144.04;109957;1279;21942;-62
2023/11/04 07:57:12;;;;;;;16.10;4.60;;;;;;;25.25;87.69;99145.81;109977;1287;22003;-66
2023/11/04 07:59:37;;;;;;;14.60;4.70;;;;;;;25.27;87.50;99143.48;109942;1286;21937;-61
2023/11/04 08:02:03;;;;;;;16.70;4.40;;;;;;;25.32;86.98;99138.88;109953;1287;21943;-66
2023/11/04 08:04:29;;;;;;;17.70;3.90;;;;;;;25.33;86.34;99139.54;109926;1279;21986;-61
2023/11/04 08:06:55;;;;;;;14.60;4.20;;;;;;;25.34;85.37;99142.14;109953;1287;22000;-65
2023/11/04 08:09:20;;;;;;;13.40;3.60;;;;;;;25.28;84.82;99145.38;109961;1273;21994;-66
2023/11/04 08:11:46;;;;;;;13.00;3.90;;;;;;;25.22;84.50;99148.27;109945;1287;22111;-61
2023/11/04 08:14:12;;;;;;;11.50;4.00;;;;;;;25.18;84.51;99151.89;109938;1287;21933;-66
2023/11/04 08:16:38;;;;;;;8.40;3.60;;;;;;;25.14;84.60;99158.13;109956;1286;21970;-61
2023/11/04 08:19:05;;;;;;;10.90;3.60;;;;;;;25.12;84.31;99164.82;109950;1287;21913;-66
2023/11/04 08:21:32;;;;;;;16.60;4.20;;;;;;;25.11;84.56;99162.59;109945;1286;21927;-62
2023/11/04 08:24:00;;;;;;;15.90;3.60;;;;;;;25.12;84.83;99164.41;109945;1287;22004;-61
2023/11/04 08:26:26;;;;;;;11.90;4.00;;;;;;;25.19;85.19;99167.20;109965;1276;21928;-67
2023/11/04 08:28:52;;;;;;;17.90;3.80;;;;;;;25.29;84.80;99165.73;109944;1287;21960;-66
2023/11/04 08:31:18;;;;;;;14.30;4.20;;;;;;;25.40;84.69;99174.63;109952;1286;21948;-62
2023/11/04 08:33:44;;;;;;;13.00;3.80;;;;;;;25.51;84.27;99179.73;109948;1287;21977;-61
2023/11/04 08:36:10;;;;;;;10.60;3.40;;;;;;;25.58;83.50;99181.27;109952;1276;21864;-63
2023/11/04 08:38:38;;;;;;;9.30;3.10;;;;;;;25.64;83.19;99175.77;109947;1287;21935;-67
2023/11/04 08:41:04;;;;;;;12.60;3.40;;;;;;;25.70;82.84;99179.68;109947;1286;21933;-61
2023/11/04 08:43:30;;;;;;;16.80;3.00;;;;;;;25.74;82.00;99179.69;109952;1286;21940;-61
2023/11/04 08:45:58;;;;;;;13.30;3.10;;;;;;;25.77;82.05;99177.60;109931;1287;21878;-61
2023/11/04 08:48:24;;;;;;;8.60;2.30;;;;;;;25.81;81.89;99179.71;109948;1276;21955;-68
2023/11/04 08:50:49;;;;;;;9.30;2.70;;;;;;;25.85;81.04;99178.78;109931;1286;22053;-61
2023/11/04 08:53:15;;;;;;;10.80;3.10;;;;;;;25.92;80.10;99165.94;109948;1279;21959;-67
2023/11/04 08:55:40;;;;;;;11.50;3.10;;;;;;;25.90;78.51;99160.05;109951;1286;21988;-61
2023/11/04 08:58:06;;;;;;;7.90;2.60;;;;;;;25.89;79.13;99160.53;109945;1286;21922;-61
2023/11/04 09:00:32;;;;;;;11.40;3.10;;;;;;;25.93;78.27;99158.85;109931;1283;22032;-66
2023/11/04 09:03:00;;;;;;;11.50;3.30;;;;;;;26.08;77.88;99145.52;109954;1283;22065;-62
2023/11/04 09:05:27;;;;;;;11.00;3.10;;;;;;;26.21;78.33;99135.88;109949;1286;21945;-67
2023/11/04 09:07:53;;;;;;;13.90;3.40;;;;;;;26.34;78.03;99136.03;109967;1279;21906;-67
2023/11/04 09:10:19;;;;;;;11.40;3.20;;;;;;;26.51;77.08;99144.48;109952;1278;21957;-67
2023/11/04 09:12:45;;;;;;;9.90;3.20;;;;;;;26.64;75.69;99137.42;109965;1279;21959;-67
2023/11/04 09:15:11;;;;;;;7.40;2.70;;;;;;;26.79;74.99;99125.56;109938;1286;22016;-61
2023/11/04 09:17:38;;;;;;;15.40;3.50;;;;;;;26.91;75.02;99120.92;109950;1275;21947;-61
2023/11/04 09:20:07;;;;;;;11.60;3.20;;;;;;;27.04;74.93;99117.12;109942;1286;21901;-61
2023/11/04 09:22:33;;;;;;;12.90;2.80;;;;;;;27.16;73.76;99108.54;109949;1286;21991;-67
2023/11/04 09:24:59;;;;;;;10.80;2.70;;;;;;;27.26;73.50;99094.30;109965;1286;21932;-63
2023/11/04 09:27:24;;;;;;;6.30;2.10;;;;;;;27.32;71.00;99085.49;109937;1287;21968;-66
2023/11/04 09:29:50;;;;;;;8.80;3.00;;;;;;;27.32;70.09;99081.01;109946;1283;21919;-61
2023/11/04 09:32:17;;;;;;;8.90;2.50;;;;;;;27.29;69.58;99078.04;109939;1287;21974;-67
2023/11/04 09:34:43;;;;;;;10.10;3.90;;;;;;;27.26;69.47;99079.58;109957;1279;21943;-67
2023/11/04 09:37:11;;;;;;;7.00;2.60;;;;;;;27.25;70.10;99079.36;109942;1279;21943;-62
2023/11/04 09:39:36;;;;;;;12.50;2.90;;;;;;;27.22;69.40;99081.48;109938;1287;21921;-67
2023/11/04 09:42:05;;;;;;;10.20;3.30;;;;;;;27.19;69.25;99081.05;109946;1281;21935;-62
2023/11/04 09:44:30;;;;;;;8.80;3.20;;;;;;;27.22;69.90;99078.10;109960;1287;21969;-61
2023/11/04 09:46:56;;;;;;;9.90;2.60;;;;;;;27.24;69.47;99076.20;109942;1286;21938;-68
2023/11/04 09:49:22;;;;;;;8.40;2.70;;;;;;;27.24;68.68;99080.20;109837;1288;21956;-61
2023/11/04 09:51:48;;;;;;;9.50;2.50;;;;;;;27.21;68.68;99083.32;109925;1279;21944;-63
2023/11/04 09:54:14;;;;;;;13.00;2.80;;;;;;;27.16;67.87;99078.09;109838;1287;21972;-61
2023/11/04 09:56:39;;;;;;;10.40;3.10;;;;;;;27.10;67.78;99066.03;109838;1282;21873;-68
2023/11/04 09:59:07;;;;;;;12.90;2.30;;;;;;;27.06;67.05;99061.98;109865;1279;21962;-66
2023/11/04 10:01:32;;;;;;;11.90;3.30;;;;;;;27.06;67.81;99067.13;109965;1279;22003;-68
2023/11/04 10:03:58;;;;;;;9.20;2.70;;;;;;;27.05;67.30;99072.38;109927;1287;21952;-68
2023/11/04 10:06:25;;;;;;;9.90;2.50;;;;;;;27.04;67.04;99067.48;109952;1286;21918;-68
2023/11/04 10:08:51;;;;;;;10.20;3.10;;;;;;;27.09;67.67;99057.27;109945;1273;21978;-67
2023/11/04 10:11:17;;;;;;;8.70;2.50;;;;;;;27.18;68.19;99045.63;109947;1287;21936;-67
2023/11/04 10:13:43;;;;;;;8.90;2.20;;;;;;;27.31;67.53;99032.65;109939;1279;21978;-62
2023/11/04 10:16:08;;;;;;;9.50;2.80;;;;;;;27.38;65.79;99030.63;109950;1279;21838;-63
2023/11/04 10:18:34;;;;;;;9.30;2.40;;;;;;;27.43;65.61;99027.41;109937;1286;21935;-68
2023/11/04 10:21:00;;;;;;;8.90;2.50;;;;;;;27.48;65.98;99025.10;109963;1287;21915;-61
2023/11/04 10:23:27;;;;;;;10.10;2.40;;;;;;;27.52;65.16;99022.59;109953;1286;21970;-68
2023/11/04 10:25:52;;;;;;;7.30;2.50;;;;;;;27.59;65.71;99017.68;109959;1276;21907;-67
2023/11/04 10:28:23;;;;;;;8.90;2.70;;;;;;;27.66;64.65;99012.58;109948;1286;22005;-68
2023/11/04 10:30:51;;;;;;;8.40;2.20;;;;;;;27.70;64.23;99003.34;109958;1286;21935;-62
2023/11/04 10:33:16;;;;;;;8.10;2.40;;;;;;;27.70;63.21;98994.02;109950;1279;21923;-68
2023/11/04 10:35:44;;;;;;;7.50;2.30;;;;;;;27.67;63.00;98989.48;109873;1287;21921;-62
2023/11/04 10:38:14;;;;;;;9.10;2.50;;;;;;;27.66;63.91;98987.04;109946;1287;22019;-62
2023/11/04 10:40:41;;;;;;;11.00;2.80;;;;;;;27.66;63.12;98988.35;109968;1286;22405;-62
2023/11/04 10:43:07;;;;;;;10.40;2.40;;;;;;;27.61;62.45;98993.14;109940;1287;21945;-62
2023/11/04 10:45:41;;;;;;;8.00;2.60;;;;;;;27.55;61.35;98999.36;109945;1286;21970;-68
2023/11/04 10:48:15;;;;;;;9.40;2.00;;;;;;;27.50;61.86;99004.71;109854;1287;22012;-61
2023/11/04 10:50:43;;;;;;;7.60;2.30;;;;;;;27.50;62.00;99000.05;109942;1283;21934;-62
2023/11/04 10:53:30;;;;;;;6.80;2.30;;;;;;;27.52;61.42;98990.16;109868;1287;22007;-62
2023/11/04 10:56:05;;;;;;;8.30;2.90;;;;;;;27.52;61.29;98981.90;109941;1287;21910;-62
2023/11/04 10:58:34;;;;;;;11.60;2.50;;;;;;;27.43;61.19;98987.48;109943;1287;22295;-62
2023/11/04 11:00:59;;;;;;;8.40;2.40;;;;;;;27.37;62.59;98996.55;109841;1287;21961;-68
2023/11/04 11:03:25;;;;;;;8.00;2.70;;;;;;;27.36;62.35;98979.03;109857;1287;21943;-68
2023/11/04 11:05:51;;;;;;;7.50;2.80;;;;;;;27.43;61.42;98970.00;109878;1283;21945;-62
2023/11/04 11:08:16;;;;;;;10.80;2.70;;;;;;;27.46;60.62;98969.84;109839;1287;21974;-62
2023/11/04 11:11:04;;;;;;;9.60;2.60;;;;;;;27.42;59.77;98964.09;109851;1282;21919;-62
2023/11/04 11:13:32;;;;;;;11.30;2.70;;;;;;;27.41;60.89;98962.40;109847;1287;21926;-69
2023/11/04 11:15:58;;;;;;;7.50;2.70;;;;;;;27.44;60.30;98965.71;109936;1275;21996;-68